Time;durP1;ratioP1;P1;durP2;ratioP2;P2;SDS_P1;SDS_P2;PMS_P1;PMS_P2;Temp;Humidity;BMP_temperature;BMP_pressure;BME280_temperature;BME280_humidity;BME280_pressure;Samples;Min_cycle;Max_cycle;Signal;HPM_P1;HPM_P2
2022/12/22 03:25:53;;;;;;;6.60;5.97;;;;;;;;;;4985972;28;20045;-44
2022/12/22 03:28:25;;;;;;;7.60;5.68;;;;;;;;;;4988390;28;20553;-42
2022/12/22 03:31:00;;;;;;;6.33;5.67;;;;;;;;;;4984935;28;20038;-42
2022/12/22 03:33:26;;;;;;;6.18;5.57;;;;;;;;;;4990388;28;20066;-43
2022/12/22 03:35:52;;;;;;;5.72;5.22;;;;;;;;;;4986099;28;20109;-42
2022/12/22 03:38:17;;;;;;;5.10;4.55;;;;;;;;;;4988493;28;20125;-43
2022/12/22 03:40:43;;;;;;;6.53;4.72;;;;;;;;;;4989185;28;20026;-42
2022/12/22 03:48:39;;;;;;;5.47;4.95;;;;;;;;;;4989481;28;20077;-44
2022/12/22 03:51:05;;;;;;;5.50;4.95;;;;;;;;;;4986306;28;20022;-43
2022/12/22 03:53:31;;;;;;;5.88;4.57;;;;;;;;;;4984612;28;20054;-43
2022/12/22 03:55:56;;;;;;;5.45;4.95;;;;;;;;;;4988073;28;20042;-43
2022/12/22 03:58:21;;;;;;;5.65;5.15;;;;;;;;;;4987618;28;20046;-42
2022/12/22 04:00:47;;;;;;;5.90;5.30;;;;;;;;;;4987795;28;20176;-43
2022/12/22 04:03:13;;;;;;;5.25;4.85;;;;;;;;;;4992500;28;20042;-42
2022/12/22 04:05:38;;;;;;;5.22;4.45;;;;;;;;;;4990118;28;20034;-43
2022/12/22 04:08:04;;;;;;;4.40;4.10;;;;;;;;;;4988307;28;20185;-42
2022/12/22 04:13:14;;;;;;;5.25;4.75;;;;;;;;;;4990000;28;20458;-42
2022/12/22 04:15:39;;;;;;;6.30;4.50;;;;;;;;;;4989817;28;20026;-42
2022/12/22 04:18:05;;;;;;;5.18;4.72;;;;;;;;;;4985452;28;20046;-42
2022/12/22 04:20:30;;;;;;;6.38;5.78;;;;;;;;;;4989449;28;20073;-44
2022/12/22 04:22:56;;;;;;;5.65;5.05;;;;;;;;;;4989364;28;20070;-44
2022/12/22 04:25:22;;;;;;;7.25;5.28;;;;;;;;;;4989090;28;20061;-42
2022/12/22 04:27:48;;;;;;;8.02;5.43;;;;;;;;;;4990872;28;20038;-40
2022/12/22 04:30:14;;;;;;;6.65;5.70;;;;;;;;;;4988531;28;20031;-42
2022/12/22 04:32:39;;;;;;;5.82;5.25;;;;;;;;;;4986786;28;20511;-43
2022/12/22 04:35:06;;;;;;;5.47;4.75;;;;;;;;;;4984917;28;20061;-46
2022/12/22 04:37:31;;;;;;;4.93;4.53;;;;;;;;;;4987698;28;20038;-42
2022/12/22 04:39:57;;;;;;;5.05;4.63;;;;;;;;;;4988770;28;20399;-42
2022/12/22 04:42:22;;;;;;;4.97;4.57;;;;;;;;;;4986757;28;20034;-43
2022/12/22 04:44:48;;;;;;;4.72;4.32;;;;;;;;;;4989451;28;20026;-43
2022/12/22 04:47:13;;;;;;;7.05;5.00;;;;;;;;;;4987894;28;20080;-43
2022/12/22 04:49:39;;;;;;;9.60;6.07;;;;;;;;;;4988006;28;20110;-48
2022/12/22 04:52:04;;;;;;;8.57;7.13;;;;;;;;;;4983689;28;20496;-47
2022/12/22 04:54:30;;;;;;;6.43;5.80;;;;;;;;;;4986184;28;20038;-43
2022/12/22 04:56:55;;;;;;;7.68;5.65;;;;;;;;;;4987936;28;20050;-42
2022/12/22 04:59:20;;;;;;;6.03;4.95;;;;;;;;;;4989077;28;20029;-45
2022/12/22 05:01:46;;;;;;;5.32;4.85;;;;;;;;;;4987452;28;20057;-42
2022/12/22 05:04:11;;;;;;;8.00;4.68;;;;;;;;;;4987288;28;20022;-42
2022/12/22 05:06:36;;;;;;;4.63;3.70;;;;;;;;;;4988849;28;20034;-47
2022/12/22 05:09:02;;;;;;;3.67;3.38;;;;;;;;;;4989782;28;20037;-46
2022/12/22 05:11:28;;;;;;;4.55;4.10;;;;;;;;;;4987041;28;20404;-45
2022/12/22 05:13:53;;;;;;;4.22;3.50;;;;;;;;;;4986095;28;20027;-46
2022/12/22 05:16:18;;;;;;;4.70;3.35;;;;;;;;;;4987462;28;20028;-44
2022/12/22 05:18:44;;;;;;;3.42;3.13;;;;;;;;;;4988786;28;20092;-44
2022/12/22 05:21:11;;;;;;;4.55;3.35;;;;;;;;;;4985319;28;20604;-41
2022/12/22 05:23:37;;;;;;;8.38;3.67;;;;;;;;;;4986599;28;20192;-44
2022/12/22 05:26:02;;;;;;;4.28;2.65;;;;;;;;;;4987999;28;20113;-43
2022/12/22 05:28:28;;;;;;;4.60;3.25;;;;;;;;;;4985705;28;20438;-42
2022/12/22 05:30:54;;;;;;;4.85;2.90;;;;;;;;;;4987120;28;20026;-43
2022/12/22 05:33:20;;;;;;;7.95;2.78;;;;;;;;;;4984478;28;20510;-43
2022/12/22 05:35:45;;;;;;;2.53;2.33;;;;;;;;;;4988939;28;20038;-46
2022/12/22 05:38:11;;;;;;;6.90;2.92;;;;;;;;;;4982422;28;20503;-45
2022/12/22 05:40:36;;;;;;;4.43;2.53;;;;;;;;;;4985138;28;20022;-45
2022/12/22 05:43:02;;;;;;;3.80;3.33;;;;;;;;;;4984904;28;20129;-44
2022/12/22 05:45:27;;;;;;;5.68;3.38;;;;;;;;;;4986800;28;20031;-43
2022/12/22 05:47:52;;;;;;;4.53;3.47;;;;;;;;;;4985360;28;20440;-42
2022/12/22 05:50:21;;;;;;;9.45;3.90;;;;;;;;;;4985677;28;20031;-45
2022/12/22 05:52:46;;;;;;;7.10;4.70;;;;;;;;;;4977791;28;20038;-42
2022/12/22 05:55:13;;;;;;;5.13;4.35;;;;;;;;;;4984037;28;20053;-44
2022/12/22 05:57:40;;;;;;;8.35;5.35;;;;;;;;;;4984211;28;20161;-43
2022/12/22 06:00:07;;;;;;;7.47;5.57;;;;;;;;;;4991560;28;20057;-45
2022/12/22 06:02:33;;;;;;;10.05;5.68;;;;;;;;;;4990842;28;20550;-47
2022/12/22 06:04:58;;;;;;;14.75;8.48;;;;;;;;;;4989958;28;20022;-44
2022/12/22 06:07:23;;;;;;;11.60;8.70;;;;;;;;;;4989418;28;20065;-43
2022/12/22 06:09:49;;;;;;;8.73;7.03;;;;;;;;;;4986850;28;20486;-45
2022/12/22 06:12:14;;;;;;;7.10;6.07;;;;;;;;;;4986829;28;20066;-42
2022/12/22 06:14:40;;;;;;;5.03;4.53;;;;;;;;;;4988987;28;20089;-44
2022/12/22 06:17:05;;;;;;;4.47;4.07;;;;;;;;;;4987057;28;20105;-43
2022/12/22 06:19:31;;;;;;;4.28;3.88;;;;;;;;;;4988641;28;20038;-41
2022/12/22 06:21:56;;;;;;;4.53;3.78;;;;;;;;;;4986827;28;20046;-45
2022/12/22 06:24:21;;;;;;;4.93;4.53;;;;;;;;;;4990968;28;20053;-42
2022/12/22 06:26:47;;;;;;;4.68;4.25;;;;;;;;;;4990415;28;20045;-42
2022/12/22 06:29:12;;;;;;;16.38;4.85;;;;;;;;;;4991517;28;20475;-42
2022/12/22 06:31:38;;;;;;;6.85;4.75;;;;;;;;;;4986442;28;20062;-44
2022/12/22 06:34:03;;;;;;;4.93;4.45;;;;;;;;;;4986736;28;20034;-42
2022/12/22 06:36:29;;;;;;;7.82;4.43;;;;;;;;;;4990487;28;20065;-42
2022/12/22 06:38:54;;;;;;;5.22;4.10;;;;;;;;;;4991355;28;20026;-42
2022/12/22 06:43:07;;;;;;;4.65;3.90;;;;;;;;;;4990127;28;20467;-45
2022/12/22 06:44:05;;;;;;;4.72;4.32;;;;;;;;;;4986770;28;20411;-46
2022/12/22 06:46:30;;;;;;;5.03;4.18;;;;;;;;;;4988639;28;20031;-42
2022/12/22 06:48:56;;;;;;;6.47;4.45;;;;;;;;;;4982111;28;20030;-43
2022/12/22 06:51:21;;;;;;;5.07;4.38;;;;;;;;;;4989037;28;20018;-43
2022/12/22 06:53:47;;;;;;;10.32;6.05;;;;;;;;;;4985422;28;20046;-44
2022/12/22 06:56:12;;;;;;;7.75;5.32;;;;;;;;;;4985692;28;20440;-42
2022/12/22 06:58:38;;;;;;;8.52;5.30;;;;;;;;;;4989757;28;20070;-45
2022/12/22 07:01:03;;;;;;;7.95;6.97;;;;;;;;;;4991737;28;20033;-44
2022/12/22 07:03:29;;;;;;;9.65;8.10;;;;;;;;;;4991302;28;20053;-42
2022/12/22 07:05:54;;;;;;;9.35;8.40;;;;;;;;;;4977896;28;20034;-42
2022/12/22 07:08:19;;;;;;;15.75;9.50;;;;;;;;;;4984099;28;20088;-42
2022/12/22 07:10:57;;;;;;;15.63;10.40;;;;;;;;;;4985338;28;20022;-42
2022/12/22 07:13:24;;;;;;;9.90;8.93;;;;;;;;;;4989258;28;20061;-42
2022/12/22 07:15:51;;;;;;;11.77;6.97;;;;;;;;;;4988506;28;20025;-42
2022/12/22 07:18:16;;;;;;;11.15;6.53;;;;;;;;;;4990239;28;20038;-44
2022/12/22 07:20:41;;;;;;;10.68;6.05;;;;;;;;;;4981070;28;20394;-42
2022/12/22 07:23:07;;;;;;;13.15;8.95;;;;;;;;;;4987647;28;20035;-41
2022/12/22 07:25:32;;;;;;;14.48;8.73;;;;;;;;;;4983404;28;20101;-42
2022/12/22 07:27:58;;;;;;;11.93;7.45;;;;;;;;;;4987869;28;20031;-41
2022/12/22 07:30:23;;;;;;;8.63;6.38;;;;;;;;;;4981193;28;20061;-41
2022/12/22 07:32:49;;;;;;;9.95;6.40;;;;;;;;;;5013741;28;20038;-43
2022/12/22 07:35:14;;;;;;;14.00;6.40;;;;;;;;;;4984937;28;20471;-42
2022/12/22 07:37:40;;;;;;;9.52;6.50;;;;;;;;;;4977692;28;20105;-43
2022/12/22 07:40:06;;;;;;;11.90;7.10;;;;;;;;;;4987035;28;20360;-41
2022/12/22 07:42:43;;;;;;;13.57;7.30;;;;;;;;;;4989635;28;20049;-41
2022/12/22 07:45:09;;;;;;;7.82;6.18;;;;;;;;;;4987918;28;20058;-42
2022/12/22 07:47:35;;;;;;;8.73;6.63;;;;;;;;;;4985872;28;20441;-45
2022/12/22 07:52:44;;;;;;;8.15;6.22;;;;;;;;;;4980906;28;20158;-41
2022/12/22 07:55:09;;;;;;;8.10;6.25;;;;;;;;;;4982977;28;20047;-42
2022/12/22 07:57:35;;;;;;;8.57;6.18;;;;;;;;;;4975509;28;20053;-45
2022/12/22 08:00:01;;;;;;;17.73;6.57;;;;;;;;;;4984342;28;20406;-42
2022/12/22 08:02:26;;;;;;;29.95;7.13;;;;;;;;;;4988104;28;20034;-41
2022/12/22 08:04:51;;;;;;;49.25;6.88;;;;;;;;;;4986893;28;20030;-42
2022/12/22 08:07:17;;;;;;;29.48;7.22;;;;;;;;;;4983658;28;20549;-42
2022/12/22 08:09:42;;;;;;;60.25;8.48;;;;;;;;;;4984939;28;20029;-42
2022/12/22 08:12:08;;;;;;;9.70;7.68;;;;;;;;;;4990175;28;20042;-42
2022/12/22 08:14:33;;;;;;;12.98;7.53;;;;;;;;;;4988730;28;20056;-41
2022/12/22 08:16:58;;;;;;;10.50;7.68;;;;;;;;;;4987729;28;20510;-44
2022/12/22 08:19:24;;;;;;;11.57;8.35;;;;;;;;;;4989653;28;20109;-42
2022/12/22 08:21:49;;;;;;;13.50;7.65;;;;;;;;;;4986682;28;20057;-43
2022/12/22 08:24:14;;;;;;;11.13;7.68;;;;;;;;;;4979238;28;20030;-44
2022/12/22 08:26:45;;;;;;;12.93;8.18;;;;;;;;;;4987753;28;20068;-42
2022/12/22 08:29:16;;;;;;;17.35;10.13;;;;;;;;;;4987887;28;20148;-43
2022/12/22 08:31:42;;;;;;;12.37;10.93;;;;;;;;;;4987822;28;20116;-41
2022/12/22 08:34:11;;;;;;;20.30;13.23;;;;;;;;;;4986520;28;20138;-43
2022/12/22 08:36:40;;;;;;;16.92;13.02;;;;;;;;;;4988111;28;20033;-43
2022/12/22 08:39:06;;;;;;;21.55;13.27;;;;;;;;;;4978955;28;20058;-42
2022/12/22 08:41:48;;;;;;;22.42;15.25;;;;;;;;;;4986648;28;20034;-41
2022/12/22 08:44:15;;;;;;;23.85;15.80;;;;;;;;;;4985866;28;20037;-42
2022/12/22 08:46:40;;;;;;;14.18;10.38;;;;;;;;;;4986234;28;20053;-41
2022/12/22 08:49:06;;;;;;;12.38;10.25;;;;;;;;;;4989322;28;20030;-42
2022/12/22 08:51:32;;;;;;;10.48;8.75;;;;;;;;;;4983355;28;20480;-41
2022/12/22 08:53:57;;;;;;;11.80;9.02;;;;;;;;;;4987585;28;20097;-42
2022/12/22 08:56:22;;;;;;;14.45;9.45;;;;;;;;;;4982400;28;20392;-42
2022/12/22 08:58:48;;;;;;;11.93;10.02;;;;;;;;;;4988326;28;20034;-42
2022/12/22 09:01:18;;;;;;;10.77;9.02;;;;;;;;;;4986715;28;20459;-42
2022/12/22 09:03:52;;;;;;;13.40;9.85;;;;;;;;;;4988913;28;20058;-42
2022/12/22 09:06:19;;;;;;;13.40;11.75;;;;;;;;;;4986548;28;20040;-43
2022/12/22 09:08:45;;;;;;;13.80;11.30;;;;;;;;;;4982892;28;20050;-44
2022/12/22 09:11:11;;;;;;;13.90;11.05;;;;;;;;;;4982283;28;20034;-42
2022/12/22 09:13:36;;;;;;;12.50;9.90;;;;;;;;;;4986042;28;20042;-42
2022/12/22 09:16:06;;;;;;;13.93;10.85;;;;;;;;;;4988846;28;20426;-42
2022/12/22 09:18:31;;;;;;;16.88;11.57;;;;;;;;;;4985028;28;20561;-41
2022/12/22 09:20:57;;;;;;;11.52;9.73;;;;;;;;;;4987201;28;20041;-42
2022/12/22 09:23:23;;;;;;;13.32;10.68;;;;;;;;;;4985869;28;20507;-42
2022/12/22 09:25:48;;;;;;;12.80;9.85;;;;;;;;;;4987293;28;20045;-40
2022/12/22 09:28:14;;;;;;;10.25;8.40;;;;;;;;;;4981280;28;20039;-42
2022/12/22 09:30:39;;;;;;;17.05;11.40;;;;;;;;;;4985486;28;20356;-42
2022/12/22 09:33:05;;;;;;;15.00;12.77;;;;;;;;;;4985412;28;20042;-43
2022/12/22 09:35:30;;;;;;;20.13;12.73;;;;;;;;;;4986318;28;20030;-43
2022/12/22 09:37:55;;;;;;;19.88;12.60;;;;;;;;;;4986210;28;20046;-42
2022/12/22 09:40:21;;;;;;;15.30;11.40;;;;;;;;;;4983657;28;20042;-43
2022/12/22 09:42:46;;;;;;;14.48;11.70;;;;;;;;;;4981891;28;20405;-42
2022/12/22 09:45:19;;;;;;;16.08;12.02;;;;;;;;;;4984557;28;20018;-42
2022/12/22 09:47:52;;;;;;;27.90;12.48;;;;;;;;;;4986107;28;20400;-44
2022/12/22 09:50:23;;;;;;;17.58;11.68;;;;;;;;;;4987865;28;20044;-42
2022/12/22 09:52:53;;;;;;;13.75;10.30;;;;;;;;;;4983881;28;20085;-42
2022/12/22 09:55:24;;;;;;;19.92;11.60;;;;;;;;;;4983970;28;20539;-41
2022/12/22 09:57:51;;;;;;;13.90;11.47;;;;;;;;;;4982436;28;20046;-42
2022/12/22 10:00:20;;;;;;;13.60;11.13;;;;;;;;;;4989086;28;20034;-42
2022/12/22 10:03:19;;;;;;;17.10;11.32;;;;;;;;;;4983842;28;20042;-41
2022/12/22 10:06:11;;;;;;;15.48;11.48;;;;;;;;;;4984957;28;20026;-42
2022/12/22 10:08:39;;;;;;;20.70;12.48;;;;;;;;;;4982905;28;20222;-42
2022/12/22 10:11:05;;;;;;;18.50;12.75;;;;;;;;;;4988063;28;20050;-44
2022/12/22 10:13:31;;;;;;;21.75;12.73;;;;;;;;;;4984175;28;20132;-42
2022/12/22 10:15:56;;;;;;;20.15;12.60;;;;;;;;;;4986082;28;20498;-43
2022/12/22 10:18:27;;;;;;;24.52;12.63;;;;;;;;;;4986903;28;20070;-43
2022/12/22 10:21:04;;;;;;;21.98;13.35;;;;;;;;;;4987215;28;20037;-42
2022/12/22 10:23:33;;;;;;;17.35;11.90;;;;;;;;;;4985205;28;20050;-42
2022/12/22 10:26:06;;;;;;;19.35;12.60;;;;;;;;;;4983557;28;20031;-42
2022/12/22 10:28:45;;;;;;;16.95;11.82;;;;;;;;;;4981445;28;20049;-41
2022/12/22 10:31:22;;;;;;;29.20;12.90;;;;;;;;;;4984084;28;20490;-42
2022/12/22 10:33:51;;;;;;;20.65;13.68;;;;;;;;;;4986799;28;20074;-41
2022/12/22 10:36:29;;;;;;;23.25;14.35;;;;;;;;;;4985718;28;20507;-44
2022/12/22 10:39:02;;;;;;;22.23;13.45;;;;;;;;;;4986713;28;20077;-41
2022/12/22 10:41:35;;;;;;;22.80;14.73;;;;;;;;;;4986117;28;20042;-42
2022/12/22 10:44:23;;;;;;;20.42;15.88;;;;;;;;;;4983242;28;20031;-41
2022/12/22 10:46:50;;;;;;;28.50;15.20;;;;;;;;;;5005587;28;20479;-42
2022/12/22 10:49:21;;;;;;;21.13;14.25;;;;;;;;;;4987419;28;20058;-42
2022/12/22 10:51:51;;;;;;;23.27;13.65;;;;;;;;;;4990875;28;20146;-43
2022/12/22 10:54:43;;;;;;;18.23;13.15;;;;;;;;;;4987840;28;21325;-43
2022/12/22 10:57:12;;;;;;;19.15;14.18;;;;;;;;;;4988370;28;20054;-41
2022/12/22 10:59:53;;;;;;;30.30;15.43;;;;;;;;;;4990090;28;20085;-42
2022/12/22 11:02:38;;;;;;;49.35;15.85;;;;;;;;;;4990313;28;20049;-41
2022/12/22 11:05:08;;;;;;;29.75;14.68;;;;;;;;;;4991083;28;21056;-42
2022/12/22 11:07:36;;;;;;;27.67;13.93;;;;;;;;;;4986601;28;20457;-42
2022/12/22 11:10:17;;;;;;;20.35;12.10;;;;;;;;;;4986780;28;20077;-43
2022/12/22 11:13:36;;;;;;;22.70;14.32;;;;;;;;;;4984023;28;20043;-42
2022/12/22 11:16:13;;;;;;;20.85;13.20;;;;;;;;;;4959213;28;20076;-42
2022/12/22 11:18:51;;;;;;;16.73;11.63;;;;;;;;;;4959818;28;20047;-45
2022/12/22 11:21:40;;;;;;;25.33;12.38;;;;;;;;;;4960994;28;20038;-43
2022/12/22 11:24:20;;;;;;;22.10;10.27;;;;;;;;;;4959714;28;20420;-43
2022/12/22 11:26:59;;;;;;;16.27;8.18;;;;;;;;;;4965397;28;20027;-45
2022/12/22 11:29:41;;;;;;;12.85;5.55;;;;;;;;;;4964995;28;20042;-43
2022/12/22 11:32:43;;;;;;;12.75;5.47;;;;;;;;;;4961670;28;20456;-43
2022/12/22 11:35:15;;;;;;;12.05;5.43;;;;;;;;;;4966040;28;20043;-40
2022/12/22 11:37:52;;;;;;;24.48;5.20;;;;;;;;;;4962009;28;20046;-42
2022/12/22 11:40:47;;;;;;;14.95;4.03;;;;;;;;;;4960532;28;20680;-44
2022/12/22 11:43:31;;;;;;;10.18;4.75;;;;;;;;;;4960591;28;20043;-43
2022/12/22 11:46:14;;;;;;;14.48;5.35;;;;;;;;;;4965452;28;20054;-43
2022/12/22 11:49:10;;;;;;;12.85;4.82;;;;;;;;;;4966930;28;20059;-46
2022/12/22 11:51:54;;;;;;;8.90;3.97;;;;;;;;;;5000255;28;20040;-42
2022/12/22 11:54:43;;;;;;;16.55;5.45;;;;;;;;;;4983546;28;20100;-43
2022/12/22 11:57:22;;;;;;;14.45;4.30;;;;;;;;;;4985249;28;20104;-43
2022/12/22 11:59:53;;;;;;;18.45;4.93;;;;;;;;;;4979263;28;20038;-43
2022/12/22 12:02:55;;;;;;;13.90;4.32;;;;;;;;;;4980278;28;20042;-43
2022/12/22 12:05:36;;;;;;;10.32;3.65;;;;;;;;;;4978078;28;20038;-44
2022/12/22 12:08:19;;;;;;;13.05;4.22;;;;;;;;;;5011564;28;20472;-44
2022/12/22 12:10:55;;;;;;;12.23;3.63;;;;;;;;;;4980163;28;20701;-43
2022/12/22 12:13:49;;;;;;;12.25;3.97;;;;;;;;;;4981400;28;20053;-46
2022/12/22 12:16:33;;;;;;;13.45;4.05;;;;;;;;;;4978036;28;20022;-43
2022/12/22 12:19:07;;;;;;;10.52;4.63;;;;;;;;;;4983824;28;20109;-43
2022/12/22 12:21:55;;;;;;;17.50;4.82;;;;;;;;;;4984619;28;20030;-43
2022/12/22 12:24:34;;;;;;;8.80;4.45;;;;;;;;;;4983232;28;20527;-43
2022/12/22 12:27:08;;;;;;;8.90;4.50;;;;;;;;;;5016934;28;20046;-43
2022/12/22 12:29:46;;;;;;;7.25;4.25;;;;;;;;;;4976598;28;20101;-45
2022/12/22 12:32:20;;;;;;;10.00;4.30;;;;;;;;;;4986577;28;20531;-45
2022/12/22 12:34:49;;;;;;;13.00;5.35;;;;;;;;;;4985490;28;20033;-43
2022/12/22 12:37:21;;;;;;;18.05;8.23;;;;;;;;;;4985467;28;20078;-43
2022/12/22 12:40:12;;;;;;;14.63;7.75;;;;;;;;;;4988934;28;20041;-45
2022/12/22 12:42:40;;;;;;;19.33;8.40;;;;;;;;;;4983339;28;20034;-44
2022/12/22 12:45:34;;;;;;;17.63;7.80;;;;;;;;;;4988463;28;20040;-44
2022/12/22 12:48:21;;;;;;;15.90;8.75;;;;;;;;;;4987410;28;20038;-43
2022/12/22 12:50:47;;;;;;;19.95;9.75;;;;;;;;;;4986712;28;20027;-44
2022/12/22 12:53:14;;;;;;;17.83;8.20;;;;;;;;;;4985101;28;20045;-45
2022/12/22 12:55:39;;;;;;;21.17;9.65;;;;;;;;;;4987592;28;20391;-43
2022/12/22 12:58:09;;;;;;;13.00;3.97;;;;;;;;;;4987787;28;20053;-43
2022/12/22 13:00:34;;;;;;;10.68;3.28;;;;;;;;;;4985158;28;20033;-44
2022/12/22 13:03:33;;;;;;;11.45;2.85;;;;;;;;;;4987691;28;20053;-45
2022/12/22 13:06:02;;;;;;;10.30;3.85;;;;;;;;;;4984871;28;20034;-43
2022/12/22 13:08:31;;;;;;;12.52;4.00;;;;;;;;;;4988913;28;20113;-43
2022/12/22 13:10:56;;;;;;;11.63;2.90;;;;;;;;;;4988980;28;20022;-44
2022/12/22 13:13:21;;;;;;;9.27;3.75;;;;;;;;;;4987371;28;20049;-44
2022/12/22 13:16:06;;;;;;;9.32;3.10;;;;;;;;;;4985422;28;20019;-44
2022/12/22 13:18:41;;;;;;;11.85;3.15;;;;;;;;;;4987669;28;20049;-43
2022/12/22 13:21:21;;;;;;;10.88;3.20;;;;;;;;;;4988404;28;22250;-43
2022/12/22 13:24:21;;;;;;;11.32;2.67;;;;;;;;;;4986294;28;20038;-46
2022/12/22 13:26:49;;;;;;;13.02;3.47;;;;;;;;;;4988361;28;20046;-43
2022/12/22 13:29:21;;;;;;;10.18;2.42;;;;;;;;;;4987699;28;20102;-44
2022/12/22 13:32:01;;;;;;;7.03;2.95;;;;;;;;;;5003105;28;20046;-43
2022/12/22 13:34:32;;;;;;;15.00;3.22;;;;;;;;;;4985622;28;20032;-44
2022/12/22 13:37:05;;;;;;;11.43;2.60;;;;;;;;;;4982122;28;20507;-44
2022/12/22 13:39:30;;;;;;;10.52;3.22;;;;;;;;;;4988773;28;20041;-44
2022/12/22 13:41:57;;;;;;;11.65;3.65;;;;;;;;;;4985766;28;20042;-44
2022/12/22 13:44:29;;;;;;;12.40;3.90;;;;;;;;;;4985288;28;20026;-45
2022/12/22 13:47:04;;;;;;;8.48;3.00;;;;;;;;;;4987388;28;20526;-44
2022/12/22 13:49:31;;;;;;;10.27;3.83;;;;;;;;;;4984935;28;20030;-44
2022/12/22 13:51:58;;;;;;;11.93;4.10;;;;;;;;;;4985393;28;20650;-44
2022/12/22 13:54:34;;;;;;;11.55;3.33;;;;;;;;;;4986027;28;20041;-44
2022/12/22 13:57:02;;;;;;;9.30;4.32;;;;;;;;;;4948744;28;20126;-44
2022/12/22 13:59:39;;;;;;;19.58;4.85;;;;;;;;;;4949383;28;20077;-43
2022/12/22 14:02:07;;;;;;;11.45;4.05;;;;;;;;;;4948564;28;20043;-44
2022/12/22 14:04:34;;;;;;;14.05;4.38;;;;;;;;;;4949879;28;20039;-44
2022/12/22 14:07:17;;;;;;;13.98;4.40;;;;;;;;;;4948372;28;20396;-43
2022/12/22 14:09:48;;;;;;;14.40;4.97;;;;;;;;;;4946392;28;20118;-44
2022/12/22 14:12:17;;;;;;;18.60;5.07;;;;;;;;;;4948027;28;20059;-45
2022/12/22 14:14:45;;;;;;;12.50;4.22;;;;;;;;;;4949139;28;20039;-44
2022/12/22 14:17:31;;;;;;;11.30;4.32;;;;;;;;;;4948031;28;23094;-44
2022/12/22 14:20:02;;;;;;;12.27;3.92;;;;;;;;;;4947958;28;20097;-45
2022/12/22 14:22:36;;;;;;;15.20;4.15;;;;;;;;;;4952996;28;20066;-44
2022/12/22 14:25:23;;;;;;;9.80;3.70;;;;;;;;;;4949180;28;20031;-45
2022/12/22 14:27:52;;;;;;;10.45;3.90;;;;;;;;;;4951896;28;20069;-44
2022/12/22 14:30:20;;;;;;;13.55;4.30;;;;;;;;;;4952301;28;20055;-43
2022/12/22 14:32:48;;;;;;;12.55;3.70;;;;;;;;;;4947740;28;20520;-45
2022/12/22 14:35:19;;;;;;;14.60;4.40;;;;;;;;;;4951966;28;20077;-48
2022/12/22 14:37:54;;;;;;;12.40;5.38;;;;;;;;;;4950131;28;20043;-44
2022/12/22 14:40:34;;;;;;;13.05;4.55;;;;;;;;;;4951043;28;20042;-45
2022/12/22 14:43:02;;;;;;;12.50;3.80;;;;;;;;;;4948659;28;20043;-43
2022/12/22 14:45:28;;;;;;;14.05;4.20;;;;;;;;;;4951549;28;20519;-43
2022/12/22 14:47:54;;;;;;;11.93;4.63;;;;;;;;;;4941646;28;20040;-43
2022/12/22 14:50:26;;;;;;;14.00;4.22;;;;;;;;;;4947775;28;20027;-43
2022/12/22 14:52:59;;;;;;;21.13;4.80;;;;;;;;;;4945706;28;20043;-43
2022/12/22 14:55:38;;;;;;;16.88;4.88;;;;;;;;;;4959688;28;20042;-44
2022/12/22 14:58:22;;;;;;;18.73;5.28;;;;;;;;;;4986728;28;20165;-44
2022/12/22 15:01:08;;;;;;;12.23;4.35;;;;;;;;;;4991918;28;20034;-45
2022/12/22 15:03:35;;;;;;;24.08;9.00;;;;;;;;;;4987932;28;20047;-44
2022/12/22 15:06:23;;;;;;;14.85;7.28;;;;;;;;;;4986215;28;20464;-44
2022/12/22 15:08:52;;;;;;;16.52;7.07;;;;;;;;;;4986794;28;20053;-44
2022/12/22 15:11:19;;;;;;;21.30;8.20;;;;;;;;;;4988696;28;20109;-44
2022/12/22 15:13:46;;;;;;;17.38;7.88;;;;;;;;;;4982666;28;20045;-44
2022/12/22 15:16:18;;;;;;;20.38;7.75;;;;;;;;;;4988045;28;20037;-43
2022/12/22 15:18:46;;;;;;;14.38;7.03;;;;;;;;;;4987952;28;20085;-47
2022/12/22 15:21:13;;;;;;;20.25;7.95;;;;;;;;;;4988904;28;20117;-44
2022/12/22 15:23:38;;;;;;;18.23;8.00;;;;;;;;;;4990923;28;20042;-43
2022/12/22 15:26:05;;;;;;;17.08;6.32;;;;;;;;;;4990296;28;20101;-46
2022/12/22 15:28:31;;;;;;;18.70;6.25;;;;;;;;;;4988343;28;20057;-44
2022/12/22 15:30:58;;;;;;;16.08;6.75;;;;;;;;;;4984169;28;20022;-44
2022/12/22 15:33:24;;;;;;;16.52;7.63;;;;;;;;;;4987372;28;20499;-43
2022/12/22 15:35:49;;;;;;;21.25;7.80;;;;;;;;;;4987823;28;20037;-44
2022/12/22 15:38:21;;;;;;;17.15;8.27;;;;;;;;;;4987967;28;20438;-46
2022/12/22 15:40:46;;;;;;;23.73;9.50;;;;;;;;;;4986031;28;20081;-44
2022/12/22 15:43:16;;;;;;;29.88;9.30;;;;;;;;;;4991321;28;20043;-44
2022/12/22 15:45:42;;;;;;;23.50;8.73;;;;;;;;;;4987184;28;20080;-43
2022/12/22 15:48:22;;;;;;;15.35;7.40;;;;;;;;;;4990107;28;20129;-45
2022/12/22 15:50:48;;;;;;;24.20;9.80;;;;;;;;;;4984689;28;20026;-44
2022/12/22 15:53:17;;;;;;;25.65;9.38;;;;;;;;;;4982042;28;20039;-44
2022/12/22 15:55:46;;;;;;;27.30;14.25;;;;;;;;;;4983029;28;20044;-43
2022/12/22 15:58:15;;;;;;;44.95;21.42;;;;;;;;;;4980745;28;20043;-45
2022/12/22 16:00:41;;;;;;;44.03;24.45;;;;;;;;;;4985121;28;20066;-43
2022/12/22 16:03:09;;;;;;;40.72;24.38;;;;;;;;;;4988507;28;20082;-43
2022/12/22 16:05:35;;;;;;;45.50;27.13;;;;;;;;;;4988728;28;20081;-44
2022/12/22 16:08:02;;;;;;;52.42;28.77;;;;;;;;;;4986914;28;20038;-44
2022/12/22 16:10:30;;;;;;;52.97;29.73;;;;;;;;;;4982022;28;20125;-43
2022/12/22 16:13:00;;;;;;;50.80;29.83;;;;;;;;;;4980468;28;20041;-43
2022/12/22 16:15:29;;;;;;;58.22;31.42;;;;;;;;;;4987148;28;20142;-44
2022/12/22 16:17:54;;;;;;;60.95;31.33;;;;;;;;;;4983519;28;20058;-44
2022/12/22 16:20:20;;;;;;;38.10;22.77;;;;;;;;;;4984779;28;20030;-43
2022/12/22 16:22:47;;;;;;;45.67;26.00;;;;;;;;;;4988518;28;20031;-44
2022/12/22 16:25:17;;;;;;;101.40;41.33;;;;;;;;;;4988980;28;20042;-51
2022/12/22 16:27:42;;;;;;;77.22;34.55;;;;;;;;;;4987956;28;20047;-43
2022/12/22 16:30:16;;;;;;;80.72;32.28;;;;;;;;;;4989484;28;20034;-45
2022/12/22 16:32:41;;;;;;;63.92;25.33;;;;;;;;;;4982422;28;20042;-44
2022/12/22 16:35:10;;;;;;;63.55;29.73;;;;;;;;;;4986857;28;20486;-44
2022/12/22 16:37:36;;;;;;;46.80;22.10;;;;;;;;;;4984881;28;20121;-44
2022/12/22 16:40:02;;;;;;;41.35;24.33;;;;;;;;;;4990192;28;20145;-44
2022/12/22 16:42:27;;;;;;;53.13;24.23;;;;;;;;;;4988336;28;20042;-44
2022/12/22 16:44:53;;;;;;;39.95;18.27;;;;;;;;;;4988686;28;20026;-46
2022/12/22 16:47:25;;;;;;;40.33;21.63;;;;;;;;;;4987132;28;20866;-43
2022/12/22 16:49:51;;;;;;;44.38;22.40;;;;;;;;;;4987728;28;20096;-43
2022/12/22 16:52:39;;;;;;;33.88;16.67;;;;;;;;;;4985274;28;20030;-44
2022/12/22 16:55:34;;;;;;;49.40;26.00;;;;;;;;;;4987843;28;20054;-44
2022/12/22 16:58:00;;;;;;;40.30;21.27;;;;;;;;;;4944790;28;20051;-44
2022/12/22 17:00:29;;;;;;;61.97;28.98;;;;;;;;;;4945792;28;20031;-44
2022/12/22 17:03:01;;;;;;;50.20;24.00;;;;;;;;;;4944367;28;20277;-43
2022/12/22 17:05:40;;;;;;;61.72;25.90;;;;;;;;;;4944098;28;20050;-45
2022/12/22 17:08:07;;;;;;;57.72;25.38;;;;;;;;;;4956797;28;20447;-44
2022/12/22 17:10:33;;;;;;;39.30;17.65;;;;;;;;;;4964075;28;20146;-44
2022/12/22 17:13:00;;;;;;;41.17;20.75;;;;;;;;;;4962300;28;20432;-43
2022/12/22 17:15:25;;;;;;;42.30;19.85;;;;;;;;;;4961876;28;20117;-45
2022/12/22 17:17:51;;;;;;;45.25;18.48;;;;;;;;;;4958968;28;20043;-44
2022/12/22 17:20:20;;;;;;;49.67;19.65;;;;;;;;;;4962019;28;20742;-43
2022/12/22 17:22:58;;;;;;;35.05;19.55;;;;;;;;;;4961668;28;20508;-44
2022/12/22 17:25:26;;;;;;;69.10;34.50;;;;;;;;;;4960863;28;20037;-44
2022/12/22 17:27:54;;;;;;;106.93;69.57;;;;;;;;;;4962889;28;20546;-44
2022/12/22 17:30:23;;;;;;;76.95;48.30;;;;;;;;;;4964087;28;20110;-43
2022/12/22 17:32:48;;;;;;;74.85;47.85;;;;;;;;;;4961173;28;20682;-46
2022/12/22 17:35:19;;;;;;;61.35;40.53;;;;;;;;;;4980659;28;20077;-45
2022/12/22 17:37:46;;;;;;;66.00;40.35;;;;;;;;;;4987022;28;20101;-44
2022/12/22 17:40:20;;;;;;;67.63;39.00;;;;;;;;;;4985249;28;20037;-46
2022/12/22 17:42:46;;;;;;;41.92;25.27;;;;;;;;;;4988084;28;20047;-45
2022/12/22 17:45:13;;;;;;;47.72;22.15;;;;;;;;;;4989113;28;20562;-44
2022/12/22 17:47:39;;;;;;;52.22;29.55;;;;;;;;;;4985562;28;20081;-44
2022/12/22 17:50:05;;;;;;;40.42;23.73;;;;;;;;;;4984213;28;20018;-46
2022/12/22 17:52:31;;;;;;;44.83;26.00;;;;;;;;;;4987423;28;20043;-45
2022/12/22 17:54:57;;;;;;;40.95;22.27;;;;;;;;;;4987660;28;20069;-43
2022/12/22 17:57:34;;;;;;;47.97;28.50;;;;;;;;;;4987400;28;20540;-43
2022/12/22 17:59:59;;;;;;;49.35;24.70;;;;;;;;;;4990694;28;20058;-43
2022/12/22 18:02:25;;;;;;;38.65;22.52;;;;;;;;;;4989092;28;20081;-44
2022/12/22 18:04:51;;;;;;;44.58;24.38;;;;;;;;;;4993266;28;20030;-46
2022/12/22 18:07:22;;;;;;;44.30;22.60;;;;;;;;;;4989910;28;20034;-43
2022/12/22 18:09:51;;;;;;;43.85;19.10;;;;;;;;;;4990125;28;20833;-44
2022/12/22 18:12:21;;;;;;;45.28;18.75;;;;;;;;;;4989183;28;20057;-43
2022/12/22 18:14:48;;;;;;;37.58;16.75;;;;;;;;;;4989546;28;20475;-45
2022/12/22 18:17:28;;;;;;;40.80;17.65;;;;;;;;;;4983705;28;20042;-46
2022/12/22 18:19:54;;;;;;;32.17;16.90;;;;;;;;;;4983697;28;20085;-44
2022/12/22 18:22:22;;;;;;;43.72;22.45;;;;;;;;;;4986479;28;20054;-43